createdAt,value
2022-08-07T00:02:37.330Z,102574.19
2022-08-07T00:05:05.754Z,102593.63
2022-08-07T00:07:40.438Z,102596.09
2022-08-07T00:10:25.859Z,102588.81
2022-08-07T00:12:57.789Z,102593.75
2022-08-07T00:15:38.633Z,102593.41
2022-08-07T00:18:24.458Z,102589.38
2022-08-07T00:20:57.590Z,102588.56
2022-08-07T00:23:31.815Z,102584.53
2022-08-07T00:26:12.835Z,102583.34
2022-08-07T00:28:55.640Z,102581.75
2022-08-07T00:31:38.463Z,102579.34
2022-08-07T00:34:11.747Z,102577.75
2022-08-07T00:36:43.172Z,102577.75
2022-08-07T00:39:17.371Z,102573.28
2022-08-07T00:42:01.728Z,102575.34
2022-08-07T00:44:35.411Z,102564.88
2022-08-07T00:47:16.134Z,102562.50
2022-08-07T00:50:20.457Z,102562.53
2022-08-07T00:52:48.439Z,102565.81
2022-08-07T00:55:25.620Z,102568.28
2022-08-07T00:58:07.525Z,102562.63
2022-08-07T01:00:38.225Z,102559.41
2022-08-07T01:03:55.510Z,102548.53
2022-08-07T01:06:13.469Z,102548.56
2022-08-07T01:08:53.507Z,102541.31
2022-08-07T01:12:23.295Z,102553.88
2022-08-07T01:14:15.596Z,102552.28
2022-08-07T01:16:47.987Z,102552.31
2022-08-07T01:19:20.916Z,102543.44
2022-08-07T01:21:55.696Z,102554.75
2022-08-07T01:24:32.362Z,102538.56
2022-08-07T01:27:03.922Z,102546.69
2022-08-07T01:29:34.488Z,102535.34
2022-08-07T01:32:12.340Z,102539.84
2022-08-07T01:34:47.376Z,102526.44
2022-08-07T01:37:20.107Z,102526.47
2022-08-07T01:39:51.955Z,102525.69
2022-08-07T01:42:37.910Z,102539.50
2022-08-07T01:45:17.770Z,102536.25
2022-08-07T01:48:29.783Z,102526.97
2022-08-07T01:50:43.612Z,102526.59
2022-08-07T01:53:21.064Z,102522.53
2022-08-07T01:55:59.385Z,102530.25
2022-08-07T01:58:37.468Z,102536.34
2022-08-07T02:02:02.104Z,102528.25
2022-08-07T02:04:26.655Z,102529.88
2022-08-07T02:07:00.474Z,102522.19
2022-08-07T02:09:51.690Z,102522.59
2022-08-07T02:12:29.404Z,102525.44
2022-08-07T02:15:06.808Z,102525.03
2022-08-07T02:17:49.201Z,102521.78
2022-08-07T02:20:23.829Z,102523.84
2022-08-07T02:23:01.671Z,102515.34
2022-08-07T02:26:31.474Z,102520.66
2022-08-07T02:28:31.394Z,102513.78
2022-08-07T02:31:10.362Z,102510.56
2022-08-07T02:34:03.856Z,102514.59
2022-08-07T02:36:49.676Z,102510.59
2022-08-07T02:39:43.290Z,102517.06
2022-08-07T02:42:16.423Z,102512.63
2022-08-07T02:44:51.043Z,102519.47
2022-08-07T02:47:24.843Z,102510.59
2022-08-07T02:50:02.138Z,102514.63
2022-08-07T02:52:44.212Z,102503.31
2022-08-07T02:55:28.321Z,102500.88
2022-08-07T02:58:21.644Z,102504.94
2022-08-07T03:00:55.384Z,102504.13
2022-08-07T03:03:49.297Z,102505.31
2022-08-07T03:06:32.048Z,102514.66
2022-08-07T03:09:07.530Z,102513.03
2022-08-07T03:11:51.818Z,102513.44
2022-08-07T03:14:30.875Z,102500.09
2022-08-07T03:17:00.860Z,102505.78
2022-08-07T03:19:37.303Z,102503.78
2022-08-07T03:22:18.550Z,102505.75
2022-08-07T03:24:50.614Z,102514.66
2022-08-07T03:27:30.399Z,102504.53
2022-08-07T03:30:03.914Z,102498.88
2022-08-07T03:32:48.945Z,102508.59
2022-08-07T03:35:26.330Z,102501.72
2022-08-07T03:38:01.821Z,102511.03
2022-08-07T03:40:36.201Z,102502.53
2022-08-07T03:43:14.869Z,102509.78
2022-08-07T03:45:49.351Z,102502.53
2022-08-07T03:48:24.550Z,102500.13
2022-08-07T03:50:58.070Z,102501.72
2022-08-07T03:54:02.047Z,102504.97
2022-08-07T03:56:33.159Z,102496.06
2022-08-07T03:59:13.381Z,102492.81
2022-08-07T04:01:49.826Z,102502.97
2022-08-07T04:04:24.584Z,102513.88
2022-08-07T04:07:00.383Z,102509.00
2022-08-07T04:09:45.226Z,102508.22
2022-08-07T04:12:28.250Z,102503.34
2022-08-07T04:15:01.218Z,102509.00
2022-08-07T04:18:31.190Z,102504.16
2022-08-07T04:20:25.375Z,102506.59
2022-08-07T04:23:01.180Z,102509.41
2022-08-07T04:25:39.181Z,102513.06
2022-08-07T04:28:13.268Z,102514.66
2022-08-07T04:30:56.974Z,102515.47
2022-08-07T04:33:36.212Z,102514.66
2022-08-07T04:36:08.860Z,102510.22
2022-08-07T04:38:42.720Z,102509.00
2022-08-07T04:41:18.059Z,102521.13
2022-08-07T04:44:10.111Z,102513.88
2022-08-07T04:47:03.860Z,102526.78
2022-08-07T04:50:10.899Z,102521.94
2022-08-07T04:52:53.737Z,102525.59
2022-08-07T04:58:11.572Z,102530.81
2022-08-07T04:59:15.943Z,102524.34
2022-08-07T05:01:45.710Z,102520.31
2022-08-07T05:04:34.132Z,102535.66
2022-08-07T05:07:20.212Z,102532.44
2022-08-07T05:09:59.531Z,102541.34
2022-08-07T05:12:46.303Z,102525.19
2022-08-07T05:15:28.087Z,102532.88
2022-08-07T05:18:08.773Z,102531.22
2022-08-07T05:20:53.800Z,102531.63
2022-08-07T05:23:54.324Z,102526.75
2022-08-07T05:26:28.724Z,102529.97
2022-08-07T05:29:06.863Z,102541.28
2022-08-07T05:31:51.159Z,102539.63
2022-08-07T05:34:27.688Z,102543.22
2022-08-07T05:36:58.563Z,102537.13
2022-08-07T05:40:13.581Z,102552.88
2022-08-07T05:42:34.729Z,102545.97
2022-08-07T05:45:26.127Z,102550.81
2022-08-07T05:48:07.068Z,102549.97
2022-08-07T05:50:43.416Z,102556.81
2022-08-07T05:54:13.219Z,102560.44
2022-08-07T05:56:06.910Z,102558.72
2022-08-07T05:58:52.850Z,102548.97
2022-08-07T06:01:26.545Z,102545.56
2022-08-07T06:04:07.703Z,102543.84
2022-08-07T06:06:46.322Z,102549.84
2022-08-07T06:09:20.259Z,102541.25
2022-08-07T06:12:15.411Z,102549.66
2022-08-07T06:14:49.645Z,102554.81
2022-08-07T06:17:22.503Z,102557.53
2022-08-07T06:20:04.076Z,102558.31
2022-08-07T06:22:40.271Z,102561.53
2022-08-07T06:25:34.853Z,102561.03
2022-08-07T06:28:08.292Z,102561.72
2022-08-07T06:30:45.638Z,102563.19
2022-08-07T06:33:22.606Z,102568.63
2022-08-07T06:36:13.003Z,102562.81
2022-08-07T06:38:58.453Z,102556.19
2022-08-07T06:42:02.477Z,102557.75
2022-08-07T06:45:00.286Z,102556.66
2022-08-07T06:47:48.146Z,102540.72
2022-08-07T06:50:20.600Z,102542.81
2022-08-07T06:52:55.928Z,102553.59
2022-08-07T06:56:00.489Z,102548.09
2022-08-07T06:58:28.737Z,102553.00
2022-08-07T07:01:08.510Z,102548.34
2022-08-07T07:03:48.187Z,102550.13
2022-08-07T07:06:23.907Z,102559.59
2022-08-07T07:08:58.130Z,102553.47
2022-08-07T07:12:07.748Z,102548.41
2022-08-07T07:14:21.801Z,102540.59
2022-08-07T07:16:54.493Z,102551.28
2022-08-07T07:19:57.281Z,102548.41
2022-08-07T07:22:36.744Z,102553.50
2022-08-07T07:26:30.631Z,102543.38
2022-08-07T07:28:29.814Z,102547.13
2022-08-07T07:31:11.228Z,102545.41
2022-08-07T07:33:54.996Z,102556.75
2022-08-07T07:36:32.362Z,102554.81
2022-08-07T07:39:03.946Z,102554.00
2022-08-07T07:42:02.145Z,102544.84
2022-08-07T07:44:26.667Z,102547.16
2022-08-07T07:47:09.288Z,102546.63
2022-08-07T07:50:34.755Z,102547.38
2022-08-07T07:52:42.124Z,102538.72
2022-08-07T07:55:12.648Z,102541.94
2022-08-07T07:57:53.169Z,102532.34
2022-08-07T08:00:31.504Z,102533.34
2022-08-07T08:03:16.730Z,102535.81
2022-08-07T08:05:55.211Z,102532.06
2022-08-07T08:08:34.581Z,102527.66
2022-08-07T08:11:16.526Z,102529.28
2022-08-07T08:13:53.352Z,102527.34
2022-08-07T08:16:31.209Z,102528.63
2022-08-07T08:19:18.048Z,102525.44
2022-08-07T08:22:06.386Z,102533.91
2022-08-07T08:25:04.729Z,102535.03
2022-08-07T08:27:56.043Z,102536.28
2022-08-07T08:30:29.683Z,102536.59
2022-08-07T08:33:04.487Z,102530.25
2022-08-07T08:35:42.909Z,102524.59
2022-08-07T08:38:19.662Z,102525.72
2022-08-07T08:40:57.413Z,102528.94
2022-08-07T08:43:42.925Z,102531.81
2022-08-07T08:46:49.126Z,102528.94
2022-08-07T08:50:02.537Z,102531.19
2022-08-07T08:52:54.138Z,102528.28
2022-08-07T08:55:54.464Z,102527.50
2022-08-07T08:58:38.634Z,102531.84
2022-08-07T09:01:18.763Z,102533.75
2022-08-07T09:04:01.362Z,102529.59
2022-08-07T09:06:50.890Z,102535.97
2022-08-07T09:09:44.675Z,102528.63
2022-08-07T09:12:36.398Z,102525.41
2022-08-07T09:16:23.130Z,102528.94
2022-08-07T09:18:25.878Z,102526.06
2022-08-07T09:21:34.406Z,102517.91
2022-08-07T09:25:01.610Z,102517.41
2022-08-07T09:28:03.277Z,102520.47
2022-08-07T09:30:54.725Z,102515.19
2022-08-07T09:33:56.803Z,102511.59
2022-08-07T09:36:46.700Z,102512.28
2022-08-07T09:39:53.669Z,102503.94
2022-08-07T09:42:51.464Z,102514.44
2022-08-07T09:47:50.260Z,102503.63
2022-08-07T09:50:02.605Z,102506.28
2022-08-07T09:52:16.043Z,102497.28
2022-08-07T09:55:16.934Z,102498.94
2022-08-07T09:58:26.212Z,102492.38
2022-08-07T10:01:52.213Z,102497.16
2022-08-07T10:04:17.514Z,102494.75
2022-08-07T10:07:26.302Z,102490.75
2022-08-07T10:10:03.903Z,102481.47
2022-08-07T10:13:11.109Z,102478.59
2022-08-07T10:16:08.775Z,102469.84
2022-08-07T10:19:11.039Z,102476.25
2022-08-07T10:22:24.925Z,102472.09
2022-08-07T10:25:53.180Z,102464.63
2022-08-07T10:28:49.350Z,102474.09
2022-08-07T10:31:39.081Z,102462.44
2022-08-07T10:34:32.255Z,102462.63
2022-08-07T10:37:26.411Z,102465.50
2022-08-07T10:40:24.299Z,102460.03
2022-08-07T10:43:34.430Z,102463.03
2022-08-07T10:46:12.280Z,102452.59
2022-08-07T10:48:59.177Z,102461.16
2022-08-07T10:52:13.151Z,102452.97
2022-08-07T10:54:53.362Z,102452.59
2022-08-07T10:57:51.540Z,102448.06
2022-08-07T11:00:39.774Z,102440.53
2022-08-07T11:03:37.321Z,102436.72
2022-08-07T11:06:26.883Z,102434.66
2022-08-07T11:09:11.475Z,102431.47
2022-08-07T11:11:59.448Z,102426.78
2022-08-07T11:14:56.884Z,102422.22
2022-08-07T11:17:55.506Z,102425.75
2022-08-07T11:20:49.281Z,102426.47
2022-08-07T11:23:30.665Z,102427.56
2022-08-07T11:26:27.840Z,102424.38
2022-08-07T11:29:13.128Z,102414.91
2022-08-07T11:32:25.815Z,102413.53
2022-08-07T11:35:02.417Z,102414.50
2022-08-07T11:37:58.046Z,102412.91
2022-08-07T11:40:49.473Z,102407.78
2022-08-07T11:43:41.635Z,102402.94
2022-08-07T11:46:48.693Z,102394.47
2022-08-07T11:50:18.632Z,102392.72
2022-08-07T11:53:06.604Z,102397.63
2022-08-07T11:56:25.508Z,102402.94
2022-08-07T12:00:08.149Z,102398.00
2022-08-07T12:02:20.926Z,102397.59
2022-08-07T12:05:41.283Z,102396.13
2022-08-07T12:08:34.470Z,102394.59
2022-08-07T12:11:24.974Z,102390.84
2022-08-07T12:14:18.956Z,102379.88
2022-08-07T12:16:58.751Z,102391.41
2022-08-07T12:20:06.340Z,102393.84
2022-08-07T12:22:58.458Z,102395.31
2022-08-07T12:26:21.571Z,102387.75
2022-08-07T12:29:08.822Z,102383.66
2022-08-07T12:32:03.781Z,102378.03
2022-08-07T12:34:49.501Z,102374.09
2022-08-07T12:37:27.798Z,102374.94
2022-08-07T12:40:44.933Z,102368.13
2022-08-07T12:43:09.432Z,102361.88
2022-08-07T12:45:55.205Z,102373.41
2022-08-07T12:48:41.471Z,102371.03
2022-08-07T12:51:33.240Z,102375.47
2022-08-07T12:54:36.859Z,102367.53
2022-08-07T12:57:10.259Z,102364.94
2022-08-07T12:59:54.701Z,102362.03
2022-08-07T13:03:06.718Z,102366.09
2022-08-07T13:06:03.652Z,102361.16
2022-08-07T13:10:19.770Z,102362.13
2022-08-07T13:12:31.743Z,102349.13
2022-08-07T13:15:04.549Z,102346.13
2022-08-07T13:17:49.660Z,102344.28
2022-08-07T13:20:27.588Z,102354.50
2022-08-07T13:23:10.060Z,102340.94
2022-08-07T13:26:20.227Z,102335.03
2022-08-07T13:29:00.799Z,102327.72
2022-08-07T13:31:55.036Z,102331.56
2022-08-07T13:34:48.571Z,102334.53
2022-08-07T13:37:55.563Z,102324.88
2022-08-07T13:40:42.267Z,102328.47
2022-08-07T13:43:18.403Z,102321.09
2022-08-07T13:46:21.530Z,102326.00
2022-08-07T13:48:58.382Z,102314.06
2022-08-07T13:52:04.520Z,102319.38
2022-08-07T13:54:23.728Z,102318.88
2022-08-07T13:56:59.769Z,102313.53
2022-08-07T13:59:33.383Z,102308.00
2022-08-07T14:02:12.893Z,102314.66
2022-08-07T14:04:54.878Z,102309.78
2022-08-07T14:07:30.546Z,102304.00
2022-08-07T14:10:17.525Z,102307.66
2022-08-07T14:13:00.784Z,102299.09
2022-08-07T14:15:43.218Z,102293.50
2022-08-07T14:18:29.803Z,102295.34
2022-08-07T14:22:00.442Z,102294.28
2022-08-07T14:24:13.788Z,102292.50
2022-08-07T14:26:57.481Z,102294.75
2022-08-07T14:30:10.064Z,102293.78
2022-08-07T14:32:42.910Z,102297.50
2022-08-07T14:35:43.312Z,102292.41
2022-08-07T14:38:26.588Z,102284.16
2022-08-07T14:41:12.109Z,102272.63
2022-08-07T14:43:58.342Z,102292.16
2022-08-07T14:46:52.020Z,102275.72
2022-08-07T14:52:27.989Z,102281.53
2022-08-07T14:55:01.181Z,102281.13
2022-08-07T14:57:58.340Z,102277.19
2022-08-07T15:00:31.167Z,102271.16
2022-08-07T15:03:17.438Z,102274.13
2022-08-07T15:05:55.342Z,102271.63
2022-08-07T15:08:50.083Z,102270.84
2022-08-07T15:11:53.270Z,102263.06
2022-08-07T15:14:30.353Z,102269.13
2022-08-07T15:17:04.262Z,102266.06
2022-08-07T15:20:33.747Z,102268.78
2022-08-07T15:22:33.495Z,102264.94
2022-08-07T15:25:19.599Z,102260.06
2022-08-07T15:28:32.907Z,102255.56
2022-08-07T15:31:04.721Z,102263.78
2022-08-07T15:33:37.032Z,102258.94
2022-08-07T15:36:09.500Z,102257.09
2022-08-07T15:38:58.489Z,102256.50
2022-08-07T15:42:45.154Z,102248.63
2022-08-07T15:44:26.312Z,102250.78
2022-08-07T15:47:08.849Z,102248.88
2022-08-07T15:52:40.436Z,102239.66
2022-08-07T15:55:14.339Z,102234.06
2022-08-07T15:57:49.892Z,102230.91
2022-08-07T16:00:33.436Z,102230.34
2022-08-07T16:03:21.861Z,102228.50
2022-08-07T16:06:08.012Z,102219.41
2022-08-07T16:08:45.580Z,102234.59
2022-08-07T16:11:57.479Z,102231.44
2022-08-07T16:15:01.998Z,102233.09
2022-08-07T16:18:02.850Z,102226.66
2022-08-07T16:21:56.981Z,102224.28
2022-08-07T16:24:34.420Z,102228.28
2022-08-07T16:27:25.783Z,102229.09
2022-08-07T16:30:29.472Z,102224.88
2022-08-07T16:34:01.508Z,102216.00
2022-08-07T16:36:47.914Z,102231.97
2022-08-07T16:40:28.291Z,102218.69
2022-08-07T16:43:21.617Z,102214.22
2022-08-07T16:46:33.543Z,102218.69
2022-08-07T16:50:20.673Z,102207.84
2022-08-07T16:52:55.754Z,102209.44
2022-08-07T16:55:47.079Z,102214.50
2022-08-07T16:58:19.935Z,102207.44
2022-08-07T17:01:03.518Z,102208.53
2022-08-07T17:03:59.842Z,102208.31
2022-08-07T17:07:14.440Z,102205.75
2022-08-07T17:10:30.197Z,102214.50
2022-08-07T17:13:22.702Z,102205.84
2022-08-07T17:16:11.113Z,102212.91
2022-08-07T17:18:47.336Z,102214.22
2022-08-07T17:21:23.002Z,102215.75
2022-08-07T17:24:04.683Z,102218.00
2022-08-07T17:26:49.796Z,102209.09
2022-08-07T17:30:15.025Z,102211.09
2022-08-07T17:32:30.291Z,102220.03
2022-08-07T17:35:51.817Z,102218.84
2022-08-07T17:38:19.965Z,102222.25
2022-08-07T17:42:03.955Z,102225.22
2022-08-07T17:44:42.805Z,102226.22
2022-08-07T17:47:41.773Z,102223.75
2022-08-07T17:50:30.340Z,102225.44
2022-08-07T17:53:06.122Z,102229.00
2022-08-07T17:55:55.631Z,102231.91
2022-08-07T17:58:59.109Z,102228.09
2022-08-07T18:01:37.240Z,102231.78
2022-08-07T18:04:16.961Z,102228.09
2022-08-07T18:07:20.457Z,102238.56
2022-08-07T18:10:06.063Z,102236.44
2022-08-07T18:12:55.724Z,102238.84
2022-08-07T18:15:32.900Z,102239.47
2022-08-07T18:21:01.486Z,102250.63
2022-08-07T18:21:28.192Z,102246.41
2022-08-07T18:24:33.923Z,102245.47
2022-08-07T18:27:17.266Z,102256.31
2022-08-07T18:30:05.978Z,102248.19
2022-08-07T18:32:55.074Z,102250.53
2022-08-07T18:36:03.122Z,102255.06
2022-08-07T18:39:01.458Z,102261.16
2022-08-07T18:42:05.603Z,102265.84
2022-08-07T18:48:00.759Z,102272.53
2022-08-07T18:50:52.483Z,102273.69
2022-08-07T18:53:55.699Z,102272.59
2022-08-07T18:57:23.206Z,102271.97
2022-08-07T18:59:58.868Z,102268.78
2022-08-07T19:02:42.798Z,102278.06
2022-08-07T19:06:02.634Z,102272.03
2022-08-07T19:08:27.715Z,102277.16
2022-08-07T19:11:34.965Z,102282.28
2022-08-07T19:14:08.082Z,102286.91
2022-08-07T19:17:08.154Z,102289.56
2022-08-07T19:20:05.996Z,102305.84
2022-08-07T19:23:59.162Z,102302.00
2022-08-07T19:26:23.395Z,102294.47
2022-08-07T19:31:05.260Z,102295.75
2022-08-07T19:32:17.488Z,102302.56
2022-08-07T19:35:04.699Z,102306.69
2022-08-07T19:37:56.424Z,102305.53
2022-08-07T19:40:34.704Z,102306.97
2022-08-07T19:43:12.737Z,102310.88
2022-08-07T19:46:04.816Z,102321.50
2022-08-07T19:48:44.143Z,102320.03
2022-08-07T19:51:24.214Z,102316.69
2022-08-07T19:54:34.121Z,102323.00
2022-08-07T19:58:01.224Z,102323.88
2022-08-07T20:00:28.468Z,102330.56
2022-08-07T20:03:34.565Z,102325.13
2022-08-07T20:06:28.520Z,102323.84
2022-08-07T20:09:46.401Z,102326.91
2022-08-07T20:12:31.294Z,102324.28
2022-08-07T20:14:58.873Z,102327.28
2022-08-07T20:17:29.697Z,102328.59
2022-08-07T20:20:00.906Z,102326.66
2022-08-07T20:22:34.189Z,102333.75
2022-08-07T20:25:19.928Z,102337.22
2022-08-07T20:27:58.508Z,102347.53
2022-08-07T20:30:39.516Z,102337.63
2022-08-07T20:33:36.751Z,102332.69
2022-08-07T20:36:10.772Z,102332.69
2022-08-07T20:38:56.810Z,102339.25
2022-08-07T20:41:34.143Z,102330.59
2022-08-07T20:44:12.606Z,102334.84
2022-08-07T20:46:45.151Z,102341.00
2022-08-07T20:49:58.445Z,102347.28
2022-08-07T20:52:21.206Z,102343.72
2022-08-07T20:54:59.737Z,102342.72
2022-08-07T20:57:32.411Z,102342.16
2022-08-07T21:00:09.475Z,102344.78
2022-08-07T21:03:01.855Z,102344.22
2022-08-07T21:05:51.380Z,102345.72
2022-08-07T21:08:37.035Z,102343.75
2022-08-07T21:11:10.574Z,102345.47
2022-08-07T21:13:43.838Z,102348.09
2022-08-07T21:16:30.269Z,102336.88
2022-08-07T21:19:02.534Z,102351.84
2022-08-07T21:21:57.200Z,102343.03
2022-08-07T21:24:34.823Z,102349.75
2022-08-07T21:27:22.584Z,102350.56
2022-08-07T21:30:08.946Z,102349.88
2022-08-07T21:32:50.306Z,102346.84
2022-08-07T21:35:34.704Z,102354.38
2022-08-07T21:39:00.910Z,102354.47
2022-08-07T21:41:52.217Z,102359.13
2022-08-07T21:44:56.735Z,102353.25
2022-08-07T21:47:37.395Z,102338.34
2022-08-07T21:50:14.519Z,102348.31
2022-08-07T21:52:55.158Z,102347.25
2022-08-07T21:55:49.441Z,102356.00
2022-08-07T21:58:45.860Z,102354.78
2022-08-07T22:02:07.173Z,102350.94
2022-08-07T22:04:20.552Z,102353.34
2022-08-07T22:07:03.744Z,102344.53
2022-08-07T22:09:54.447Z,102354.81
2022-08-07T22:12:35.171Z,102355.34
2022-08-07T22:16:39.514Z,102363.13
2022-08-07T22:18:05.858Z,102362.13
2022-08-07T22:20:57.130Z,102364.69
2022-08-07T22:23:30.003Z,102363.88
2022-08-07T22:26:08.646Z,102373.72
2022-08-07T22:28:40.973Z,102365.69
2022-08-07T22:31:59.141Z,102367.81
2022-08-07T22:34:40.659Z,102373.97
2022-08-07T22:38:03.211Z,102377.25
2022-08-07T22:40:56.146Z,102383.88
2022-08-07T22:43:36.028Z,102381.56
2022-08-07T22:46:46.750Z,102383.69
2022-08-07T22:49:23.470Z,102384.94
2022-08-07T22:52:19.580Z,102389.91
2022-08-07T22:55:30.217Z,102388.47
2022-08-07T22:58:28.071Z,102399.19
2022-08-07T23:01:25.457Z,102395.97
2022-08-07T23:04:30.660Z,102405.75
2022-08-07T23:07:33.585Z,102397.72
2022-08-07T23:10:37.539Z,102403.06
2022-08-07T23:14:09.641Z,102407.69
2022-08-07T23:16:55.974Z,102406.63
2022-08-07T23:19:51.356Z,102397.69
2022-08-07T23:22:35.200Z,102398.72
2022-08-07T23:25:23.139Z,102400.06
2022-08-07T23:28:33.199Z,102388.38
2022-08-07T23:32:49.106Z,102402.47
2022-08-07T23:34:42.120Z,102390.31
2022-08-07T23:37:33.996Z,102390.31
2022-08-07T23:40:41.275Z,102388.00
2022-08-07T23:44:07.711Z,102384.78
2022-08-07T23:46:53.980Z,102389.72
2022-08-07T23:49:59.829Z,102386.53
2022-08-07T23:53:00.637Z,102389.78
2022-08-07T23:55:52.547Z,102386.28
2022-08-07T23:58:28.409Z,102378.34
